Olands Sodra Udde, Sweden

10:32 AM CEST on September 03, 2014 (GMT +0200)
Kalmar | Change Station
CLOSE
Current Station
Airport
Location: Kalmar,
Elevation: 52 ft
Nearby Weather Stations

Elev 52 ft 56.73 °N, 16.30 °E | Updated 12 minutes ago

Clear
Clear
64 °F
Feels Like 64 °F
N
4
Wind Variable Wind from SW

Today
High -- | Low -- °F
--% Chance of Precip.
Yesterday
High -- | Low -- °F
Precip. -- in
6:01 AM 7:44 PM
First Quarter, 60% visible
Pressure 30.42 in
Visibility -9999.0 miles
Clouds
Dew Point 50 °F
Humidity 59%
Rainfall 0.00 in
Snow Depth Not available.
UV Not available.
Pollen Not available.
Air Quality Not available.
Flu Activity Not available.
METAR ESMQ 030820Z 22003KT 180V270 CAVOK 18/10 Q1030

More Conditions Fewer Conditions

Pressure 30.42 in
Visibility -9999.0 miles
Clouds
Dew Point 50 °F
Humidity 59%
Rainfall 0.00 in
Snow Depth Not available.
UV Not available.
Pollen Not available.
Air Quality Not available.
Flu Activity Not available.
METAR ESMQ 030820Z 22003KT 180V270 CAVOK 18/10 Q1030

More Conditions Fewer Conditions

10-Day Weather Forecast

Almanac

Astronomy

Sep. 03, 2014 Rise Set
Actual Time 6:01 AM CEST 7:44 PM CEST
Civil Twilight 5:22 AM CEST 8:23 PM CEST
Nautical Twilight 4:33 AM CEST 9:12 PM CEST
Astronomical Twilight 3:35 AM CEST 10:08 PM CEST
Moon 3:46 PM CEST No Moon Set
Length of Visible Light 15h 01m
Length of Day
13h 42m
Tomorrow will be 4m 35s shorter.
First Quarter, 60% of the Moon is Illuminated
Today
First Quarter
Sep 8
Full
Sep 15
Last Quarter
Sep 24
New
Oct 1
First Quarter

Yesterday's Extremes

Country Highs Country Lows

Community

WunderPhotos

Upload Photos

1,749,902 photos uploaded!

Nearby

Snow Depth

Not available.

Earthquake Activity

City Distance Mag. Time & Date
No recent earthquake activity has been reported nearby.
Minimum magnitude displayed is 2.5.

Coastal Water Temperatures

Place Temperature
No Stations Reporting

Nearby Weather Stations